Mountain Brook, South Carolina
Current Conditions -  °F | °C
As of 1:53 PM on Tuesday 27 Jan 2015 (Local Time) from KCUB Reporting Station
Broken Clouds Broken Clouds  
Wind Chill: 42°   Ceiling: 12000
Heat Index: 46°   Visibility: 10mi
Dew Point: 23°   Wind: 7mph
Humidity: 40%   Direction: 290°WNW
Pressure: 29.88"   Gusts: NA
Location:  33.9488°N, 80.9462°W
Report Text: KCUB 271853Z AUTO 29006KT 10SM BKN120 08/M05 A2988 RMK AO2 SLP116 T00781050
Loading
Personal Weather Stations






























Interactive Weather Map New forecast layout! Learn more

10-Day Weather Forecast

Advertisements
Track Severe Weather on mobile